createdAt,value
2023-01-15T01:50:37.478Z,39.80
2023-01-15T01:53:14.664Z,41.15
2023-01-15T01:55:42.511Z,46.25
2023-01-15T01:58:10.569Z,47.05
2023-01-15T02:00:39.245Z,41.38
2023-01-15T02:03:07.995Z,37.97
2023-01-15T02:05:44.191Z,46.35
2023-01-15T02:08:12.682Z,43.35
2023-01-15T02:10:41.718Z,49.70
2023-01-15T02:13:39.525Z,39.63
2023-01-15T02:16:45.955Z,42.38
2023-01-15T02:19:22.398Z,38.67
2023-01-15T02:21:58.022Z,35.60
2023-01-15T02:24:37.921Z,43.80
2023-01-15T02:27:18.234Z,41.35
2023-01-15T02:29:49.101Z,44.40
2023-01-15T02:32:42.511Z,38.00
2023-01-15T02:35:19.884Z,46.03
2023-01-15T02:37:51.549Z,48.65
2023-01-15T02:40:22.587Z,47.92
2023-01-15T02:42:53.135Z,44.75
2023-01-15T02:45:33.103Z,44.30
2023-01-15T02:48:14.600Z,46.85
2023-01-15T02:50:50.936Z,41.95
2023-01-15T02:53:23.953Z,46.83
2023-01-15T02:55:54.380Z,42.30
2023-01-15T02:58:33.359Z,43.10
2023-01-15T03:01:07.884Z,36.92
2023-01-15T03:03:55.993Z,46.30
2023-01-15T03:06:33.244Z,39.72
2023-01-15T03:09:01.518Z,54.40
2023-01-15T03:11:34.199Z,42.75
2023-01-15T03:14:09.824Z,55.00
2023-01-15T03:17:01.747Z,49.45
2023-01-15T03:19:40.082Z,33.65
2023-01-15T03:22:33.815Z,44.22
2023-01-15T03:25:24.019Z,38.88
2023-01-15T03:27:55.528Z,54.15
2023-01-15T03:30:26.416Z,36.63
2023-01-15T03:32:55.080Z,43.03
2023-01-15T03:35:45.961Z,46.78
2023-01-15T03:38:32.723Z,46.20
2023-01-15T03:41:14.749Z,47.55
2023-01-15T03:43:50.925Z,53.47
2023-01-15T03:46:38.361Z,55.15
2023-01-15T03:49:25.444Z,44.28
2023-01-15T03:52:00.949Z,41.28
2023-01-15T03:54:44.861Z,46.08
2023-01-15T03:57:24.947Z,40.60
2023-01-15T03:59:59.341Z,36.22
2023-01-15T04:02:27.879Z,53.45
2023-01-15T04:05:02.745Z,58.83
2023-01-15T04:07:31.023Z,53.00
2023-01-15T04:09:59.794Z,40.10
2023-01-15T04:12:28.348Z,55.88
2023-01-15T04:15:01.030Z,56.13
2023-01-15T04:17:29.399Z,43.75
2023-01-15T04:19:57.923Z,48.03
2023-01-15T04:22:26.045Z,51.15
2023-01-15T04:24:55.289Z,45.33
2023-01-15T04:27:23.315Z,49.63
2023-01-15T04:29:51.129Z,51.28
2023-01-15T04:32:19.399Z,53.35
2023-01-15T04:34:47.211Z,53.58
2023-01-15T04:37:17.790Z,49.40
2023-01-15T04:39:47.102Z,44.80
2023-01-15T04:42:33.964Z,58.28
2023-01-15T04:45:02.280Z,53.78
2023-01-15T04:47:31.087Z,52.42
2023-01-15T04:49:59.168Z,37.92
2023-01-15T04:52:27.221Z,44.63
2023-01-15T04:54:55.792Z,42.22
2023-01-15T04:57:23.850Z,46.75
2023-01-15T04:59:52.424Z,51.40
2023-01-15T05:02:20.331Z,53.88
2023-01-15T05:04:48.384Z,51.83
2023-01-15T05:07:17.887Z,46.65
2023-01-15T05:09:45.874Z,53.25
2023-01-15T05:12:13.669Z,48.65
2023-01-15T05:14:42.495Z,42.95
2023-01-15T05:17:10.722Z,39.45
2023-01-15T05:19:38.901Z,54.53
2023-01-15T05:22:07.209Z,49.92
2023-01-15T05:24:35.216Z,49.08
2023-01-15T05:27:05.368Z,49.85
2023-01-15T05:29:33.435Z,46.30
2023-01-15T05:32:01.498Z,43.10
2023-01-15T05:34:29.780Z,57.80
2023-01-15T05:36:57.798Z,42.38
2023-01-15T05:39:25.717Z,42.90
2023-01-15T05:41:54.274Z,45.03
2023-01-15T05:44:26.933Z,44.65
2023-01-15T05:47:03.294Z,43.50
2023-01-15T05:49:33.880Z,42.03
2023-01-15T05:52:02.652Z,51.58
2023-01-15T05:54:33.118Z,48.35
2023-01-15T05:57:01.680Z,37.97
2023-01-15T05:59:31.233Z,40.35
2023-01-15T06:02:00.932Z,52.40
2023-01-15T06:04:29.528Z,39.47
2023-01-15T06:06:57.604Z,43.90
2023-01-15T06:09:28.011Z,39.88
2023-01-15T06:11:56.449Z,48.13
2023-01-15T06:14:25.108Z,49.10
2023-01-15T06:16:53.955Z,40.28
2023-01-15T06:19:23.946Z,47.72
2023-01-15T06:21:51.811Z,44.75
2023-01-15T06:24:20.980Z,48.60
2023-01-15T06:26:50.585Z,57.58
2023-01-15T06:29:20.715Z,51.90
2023-01-15T06:31:49.732Z,50.65
2023-01-15T06:34:18.830Z,48.80
2023-01-15T06:36:46.912Z,44.00
2023-01-15T06:39:18.593Z,54.20
2023-01-15T06:42:04.977Z,42.95
2023-01-15T06:47:22.228Z,58.53
2023-01-15T06:49:57.964Z,46.88
2023-01-15T06:52:26.867Z,46.50
2023-01-15T06:54:54.780Z,69.90
2023-01-15T06:57:22.893Z,51.70
2023-01-15T06:59:51.210Z,45.22
2023-01-15T07:02:19.510Z,52.95
2023-01-15T10:45:45.659Z,59.38
2023-01-15T10:49:08.479Z,49.22
2023-01-15T10:51:45.906Z,59.05
2023-01-15T10:55:04.747Z,45.13
2023-01-15T10:58:16.987Z,61.20
2023-01-15T11:01:24.344Z,58.08
2023-01-15T11:04:04.903Z,51.50
2023-01-15T11:06:37.383Z,51.42
2023-01-15T11:09:24.737Z,47.85
2023-01-15T11:12:00.381Z,53.67
2023-01-15T11:14:54.137Z,58.90
2023-01-15T11:18:13.943Z,54.85
2023-01-15T11:21:00.412Z,56.58
2023-01-15T11:23:39.951Z,52.13
2023-01-15T11:26:11.466Z,47.70
2023-01-15T11:28:46.726Z,58.35
2023-01-15T11:31:22.145Z,55.67
2023-01-15T11:34:17.225Z,63.03
2023-01-15T11:39:40.717Z,68.20
2023-01-15T11:42:35.519Z,69.93
2023-01-15T11:45:30.857Z,60.67
2023-01-15T11:48:21.386Z,57.67
2023-01-15T11:51:07.767Z,49.05
2023-01-15T11:53:49.291Z,61.20
2023-01-15T11:56:24.282Z,48.35
2023-01-15T11:58:55.736Z,64.82
2023-01-15T12:01:31.680Z,52.95
2023-01-15T12:04:45.916Z,56.00
2023-01-15T12:07:27.383Z,57.28
2023-01-15T12:10:40.600Z,56.95
2023-01-15T12:13:37.433Z,57.10
2023-01-15T12:16:42.491Z,55.65
2023-01-15T12:19:39.789Z,53.70
2023-01-15T12:23:08.961Z,53.85
2023-01-15T12:25:45.789Z,51.13
2023-01-15T12:28:28.288Z,53.50
2023-01-15T12:31:02.387Z,57.25
2023-01-15T12:33:53.037Z,58.83
2023-01-15T12:36:53.832Z,65.15
2023-01-15T12:39:37.202Z,62.08
2023-01-15T12:42:43.247Z,61.03
2023-01-15T12:45:27.281Z,55.55
2023-01-15T12:48:44.010Z,57.20
2023-01-15T12:51:43.414Z,73.07
2023-01-15T12:54:34.212Z,70.18
2023-01-15T12:57:11.205Z,60.45
2023-01-15T12:59:57.260Z,74.10
2023-01-15T13:02:35.079Z,59.08
2023-01-15T13:05:26.025Z,63.13
2023-01-15T13:08:01.259Z,57.17
2023-01-15T13:10:51.933Z,58.50
2023-01-15T13:13:27.341Z,62.40
2023-01-15T13:16:02.240Z,59.63
2023-01-15T13:18:50.408Z,63.22
2023-01-15T13:21:26.616Z,72.35
2023-01-15T13:24:05.271Z,66.32
2023-01-15T13:27:00.672Z,72.72
2023-01-15T13:29:37.286Z,71.93
2023-01-15T13:32:46.260Z,71.90
2023-01-15T13:35:34.274Z,64.45
2023-01-15T13:38:40.992Z,69.63
2023-01-15T13:41:11.276Z,64.78
2023-01-15T13:43:42.993Z,66.38
2023-01-15T13:49:23.046Z,64.78
2023-01-15T13:51:58.223Z,83.60
2023-01-15T13:54:41.235Z,79.82
2023-01-15T13:57:27.717Z,75.07
2023-01-15T14:00:39.428Z,70.50
2023-01-15T14:03:29.543Z,71.03
2023-01-15T14:06:09.131Z,67.47
2023-01-15T14:08:52.897Z,77.35
2023-01-15T14:11:40.569Z,75.05
2023-01-15T14:14:27.262Z,68.38
2023-01-15T14:17:16.393Z,69.53
2023-01-15T14:19:47.394Z,65.63
2023-01-15T14:22:43.188Z,60.55
2023-01-15T14:25:56.374Z,51.97
2023-01-15T14:29:03.788Z,71.00
2023-01-15T14:32:18.185Z,75.55
2023-01-15T14:34:59.205Z,67.00
2023-01-15T14:38:14.488Z,68.40
2023-01-15T14:41:00.610Z,73.68
2023-01-15T14:43:36.838Z,71.40
2023-01-15T14:46:54.009Z,81.53
2023-01-15T14:49:37.093Z,77.07
2023-01-15T14:53:48.920Z,81.32
2023-01-15T14:57:41.788Z,79.28
2023-01-15T15:00:17.794Z,80.00
2023-01-15T15:02:46.149Z,83.18
2023-01-15T15:05:37.512Z,80.45
2023-01-15T15:08:18.495Z,75.60
2023-01-15T15:10:50.922Z,79.78
2023-01-15T15:13:40.625Z,69.85
2023-01-15T15:16:27.269Z,86.53
2023-01-15T15:19:25.301Z,85.85
2023-01-15T15:22:12.866Z,86.57
2023-01-15T15:24:48.073Z,83.13
2023-01-15T15:27:31.244Z,81.72
2023-01-15T15:30:11.044Z,69.93
2023-01-15T15:37:13.896Z,70.95
2023-01-15T15:40:11.461Z,64.63
2023-01-15T15:43:16.057Z,76.00
2023-01-15T15:46:18.414Z,78.80
2023-01-15T15:49:07.530Z,67.18
2023-01-15T15:52:47.858Z,67.20
2023-01-15T15:55:37.020Z,74.28
2023-01-15T15:58:05.540Z,83.63
2023-01-15T16:00:39.139Z,73.47
2023-01-15T16:03:24.280Z,75.22
2023-01-15T20:18:18.466Z,119.78
2023-01-15T20:20:56.558Z,120.18
2023-01-15T20:23:25.022Z,109.63
2023-01-15T20:26:06.047Z,109.80
2023-01-15T20:28:36.350Z,102.53
2023-01-15T20:31:05.959Z,115.60
2023-01-15T20:33:47.415Z,115.07
2023-01-15T20:36:19.109Z,115.03
2023-01-15T20:38:55.297Z,109.40
2023-01-15T20:41:52.841Z,112.63
2023-01-15T20:44:53.290Z,82.45
2023-01-15T20:47:48.433Z,118.63
2023-01-15T20:50:19.253Z,82.30
2023-01-15T20:52:49.236Z,90.00
2023-01-15T20:55:25.097Z,98.47
2023-01-15T20:57:53.208Z,93.70
2023-01-15T21:00:27.448Z,95.45
2023-01-15T21:03:02.192Z,100.57
2023-01-15T21:05:31.755Z,99.27
2023-01-15T21:08:01.168Z,92.03
2023-01-15T21:10:33.398Z,102.10
2023-01-15T21:13:04.885Z,88.20
2023-01-15T21:15:39.060Z,91.70
2023-01-15T21:18:13.128Z,82.20
2023-01-15T21:20:41.314Z,86.18
2023-01-15T21:23:10.060Z,89.28
2023-01-15T21:25:38.718Z,75.82
2023-01-15T21:29:13.982Z,93.03
2023-01-15T21:31:49.211Z,98.63
2023-01-15T21:35:32.060Z,79.97
2023-01-15T21:38:00.561Z,85.97
2023-01-15T21:41:14.284Z,70.22
2023-01-15T21:44:39.107Z,87.28
2023-01-15T21:48:49.561Z,81.75
2023-01-15T21:51:29.002Z,78.72
2023-01-15T21:54:34.162Z,79.70
2023-01-15T21:57:37.182Z,81.60
2023-01-15T22:00:13.747Z,83.40
